DW9729 Weather Reports


Display with metric or nautical units.
time (UTC)temp
F
wind
direction
speed
MPH
gust
MPH
rain 1hr
in
rain 24hr
in
rain mn
in
humidity
%
barometer
mb
20190716190120 93 200 1.0 5.0 0.00 0.00 0.00 54 1016.5
20190716184532 94 194 2.0 7.0 0.00 0.00 0.00 53 1016.8
20190716183102 94 185 2.0 6.0 0.00 0.00 0.00 51 1017.0
20190716181544 94 229 1.0 4.0 0.00 0.00 0.00 52 1017.3
20190716180020 94 217 2.0 7.0 0.00 0.00 0.00 50 1017.4
20190716174516 93 214 1.0 3.0 0.00 0.00 0.00 53 1017.6
20190716173024 94 215 2.0 4.0 0.00 0.00 0.00 49 1017.8
20190716171518 93 350 0.0 5.0 0.00 0.00 0.00 54 1017.9
20190716170008 93 4 1.0 6.0 0.00 0.00 0.00 50 1018.0
20190716164513 92 15 0.0 3.0 0.00 0.00 0.00 51 1018.2
20190716163136 91 10 1.0 4.0 0.00 0.00 0.00 52 1018.4
20190716161707 91 3 0.0 3.0 0.00 0.00 0.00 51 1018.4
20190716160153 90 13 1.0 5.0 0.00 0.00 0.00 52 1018.5
20190716154628 89 359 1.0 4.0 0.00 0.00 0.00 54 1018.5
20190716153212 89 198 1.0 6.0 0.00 0.00 0.00 54 1018.5
20190716151655 88 216 0.0 3.0 0.00 0.00 0.00 57 1018.6
20190716150133 88 198 1.0 4.0 0.00 0.00 0.00 60 1018.6
20190716144607 87 3 0.0 3.0 0.00 0.00 0.00 68 1018.6
20190716143123 86 283 0.0 2.0 0.00 0.00 0.00 71 1018.7
20190716141617 85 329 0.0 1.0 0.00 0.00 0.00 73 1018.7
20190716140125 84 327 0.0 3.0 0.00 0.00 0.00 75 1018.6
20190716134549 83 240 0.0 2.0 0.00 0.00 0.00 76 1018.7
20190716133041 82 187 0.0 2.0 0.00 0.00 0.00 79 1018.8
20190716131559 81 189 0.0 3.0 0.00 0.00 0.00 80 1018.9
20190716130110 81 189 0.0 1.0 0.00 0.00 0.00 81 1018.9
20190716124531 80 196 0.0 2.0 0.00 0.00 0.00 83 1018.8
20190716123040 79 196 0.0 3.0 0.00 0.00 0.00 84 1018.9
20190716121534 78 197 0.0 3.0 0.00 0.00 0.00 84 1018.9
20190716120016 76 198 0.0 1.0 0.00 0.00 0.00 88 1018.9
20190716114600 75 198 0.0 1.0 0.00 0.00 0.00 89 1018.9
20190716111525 72 197 0.0 0.0 0.00 0.00 0.00 91 1018.7
20190716104551 71 197 0.0 1.0 0.00 0.00 0.00 93 1018.6
20190716103012 71 197 0.0 0.0 0.00 0.00 0.00 93 1018.3
20190716101517 71 197 0.0 0.0 0.00 0.00 0.00 92 1018.3
20190716100101 71 197 0.0 0.0 0.00 0.00 0.00 93 1018.2
20190716094538 71 197 0.0 0.0 0.00 0.00 0.00 93 1017.9
20190716093025 71 197 0.0 0.0 0.00 0.00 0.00 93 1017.8
20190716091507 72 197 0.0 1.0 0.00 0.00 0.00 92 1017.6
20190716090011 72 197 0.0 2.0 0.00 0.00 0.00 91 1017.7
20190716084517 72 197 0.0 0.0 0.00 0.00 0.00 92 1017.6
20190716083004 72 197 0.0 0.0 0.00 0.00 0.00 91 1017.6
20190716081515 72 197 0.0 0.0 0.00 0.00 0.00 91 1017.8
20190716080002 73 197 0.0 0.0 0.00 0.00 0.00 90 1017.7
20190716074818 73 197 0.0 0.0 0.00 0.00 0.00 91 1017.7
20190716074506 73 197 0.0 0.0 0.00 0.00 0.00 90 1017.7
20190716073142 73 197 0.0 0.0 0.00 0.00 0.00 90 1017.7
20190716071750 74 197 0.0 0.0 0.00 0.00 0.00 89 1017.7
20190716070242 74 197 0.0 0.0 0.00 0.00 0.00 90 1017.8
20190716064708 74 197 0.0 0.0 0.00 0.00 0.00 89 1018.0
20190716063108 75 197 0.0 0.0 0.00 0.00 0.00 87 1018.1
20190716061721 75 197 0.0 0.0 0.00 0.00 0.00 86 1018.2
20190716060129 75 197 0.0 0.0 0.00 0.00 0.00 86 1018.2
20190716054701 75 197 0.0 0.0 0.00 0.00 0.00 85 1018.3
20190716053130 75 197 0.0 0.0 0.00 0.00 0.00 84 1018.2
20190716051616 75 197 0.0 0.0 0.00 0.00 0.00 85 1018.2
20190716050130 75 197 0.0 0.0 0.00 0.00 0.00 85 1018.2
20190716044608 76 197 0.0 1.0 0.00 0.00 0.00 83 1017.9
20190716043050 77 197 0.0 1.0 0.00 0.00 0.00 81 1017.9
20190716041645 76 197 0.0 1.0 0.00 0.00 0.00 82 1018.1
20190716040042 77 197 0.0 0.0 0.00 0.00 0.00 81 1018.1
20190716034552 76 197 0.0 0.0 0.00 0.00 0.00 82 1018.1
20190716033118 77 197 0.0 0.0 0.00 0.00 0.00 81 1018.2
20190716031635 78 197 0.0 1.0 0.00 0.00 0.00 77 1018.1
20190716030140 78 197 0.0 0.0 0.00 0.00 0.00 75 1017.8
20190716024544 78 197 0.0 0.0 0.00 0.00 0.00 74 1017.8
20190716023107 79 197 0.0 1.0 0.00 0.00 0.00 73 1017.8
20190716021616 79 197 0.0 1.0 0.00 0.00 0.00 73 1017.8
20190716020129 79 197 0.0 1.0 0.00 0.00 0.00 72 1017.8
20190716014537 79 197 0.0 1.0 0.00 0.00 0.00 73 1017.6
20190716013037 80 197 0.0 2.0 0.00 0.00 0.00 71 1017.6
20190716011542 80 197 0.0 1.0 0.00 0.00 0.00 70 1017.5
20190716010029 80 197 0.0 1.0 0.00 0.00 0.00 70 1017.3
20190716004556 81 197 0.0 1.0 0.00 0.00 0.00 68 1017.2
20190716003042 82 197 0.0 1.0 0.00 0.00 0.00 66 1017.1
20190716001611 82 197 0.0 2.0 0.00 0.00 0.00 65 1017.3
20190716000119 83 196 0.0 3.0 0.00 0.00 0.00 63 1017.1
20190715234551 85 211 1.0 3.0 0.00 0.00 0.00 61 1016.9
20190715233026 85 214 1.0 3.0 0.00 0.00 0.00 61 1016.7
20190715231603 86 215 0.0 3.0 0.00 0.00 0.00 60 1016.6
20190715230027 86 218 1.0 3.0 0.00 0.00 0.00 58 1016.6
20190715224532 87 207 2.0 3.0 0.00 0.00 0.00 56 1016.4
20190715223144 87 209 1.0 4.0 0.00 0.00 0.00 56 1016.4
20190715221534 91 338 0.0 3.0 0.00 0.00 0.00 49 1016.4
20190715220030 93 24 0.0 5.0 0.00 0.00 0.00 38 1016.4
20190715214532 94 2 0.0 3.0 0.00 0.00 0.00 36 1016.6
20190715213022 92 331 0.0 4.0 0.00 0.00 0.00 39 1016.6
20190715211543 92 357 0.0 5.0 0.00 0.00 0.00 37 1016.8
20190715210040 92 350 0.0 6.0 0.00 0.00 0.00 39 1016.9
20190715204515 93 17 2.0 7.0 0.00 0.00 0.00 39 1017.0
20190715203040 92 315 1.0 4.0 0.00 0.00 0.00 38 1017.0
20190715201539 92 351 1.0 6.0 0.00 0.00 0.00 40 1017.1
20190715200016 91 12 0.0 4.0 0.00 0.00 0.00 41 1017.2
20190715194512 91 28 1.0 6.0 0.00 0.00 0.00 40 1017.2
20190715193005 90 211 0.0 5.0 0.00 0.00 0.00 41 1017.2
20190715191506 91 11 1.0 8.0 0.00 0.00 0.00 40 1017.3